createdAt,value
2022-11-18T00:00:35.217Z,24.73
2022-11-18T00:04:37.087Z,25.05
2022-11-18T00:08:38.739Z,26.10
2022-11-18T00:12:59.031Z,25.25
2022-11-18T00:17:04.167Z,23.08
2022-11-18T00:21:09.040Z,24.88
2022-11-18T00:25:10.656Z,23.27
2022-11-18T00:29:13.133Z,23.77
2022-11-18T00:33:14.769Z,23.38
2022-11-18T00:37:16.660Z,20.90
2022-11-18T00:41:18.260Z,22.80
2022-11-18T00:45:21.017Z,22.08
2022-11-18T00:49:23.272Z,20.95
2022-11-18T00:53:27.087Z,22.17
2022-11-18T00:57:28.793Z,25.63
2022-11-18T01:01:30.752Z,23.88
2022-11-18T01:05:32.358Z,24.83
2022-11-18T01:09:34.309Z,25.38
2022-11-18T01:13:35.922Z,23.95
2022-11-18T01:17:37.878Z,25.13
2022-11-18T01:21:39.578Z,25.13
2022-11-18T01:25:43.692Z,25.38
2022-11-18T01:29:45.295Z,23.65
2022-11-18T01:33:47.387Z,25.58
2022-11-18T01:37:49.038Z,25.42
2022-11-18T01:41:51.279Z,24.38
2022-11-18T01:45:56.087Z,26.70
2022-11-18T01:49:59.533Z,27.25
2022-11-18T01:54:12.952Z,26.48
2022-11-18T01:58:23.895Z,23.65
2022-11-18T02:02:27.131Z,24.27
2022-11-18T02:06:29.482Z,24.88
2022-11-18T02:10:31.380Z,24.55
2022-11-18T02:14:38.142Z,26.33
2022-11-18T02:18:54.292Z,24.67
2022-11-18T02:23:21.983Z,25.38
2022-11-18T02:27:29.858Z,24.80
2022-11-18T02:36:15.700Z,22.80
2022-11-18T02:40:26.407Z,24.42
2022-11-18T02:44:29.778Z,23.08
2022-11-18T02:48:35.351Z,22.77
2022-11-18T02:52:40.466Z,22.55
2022-11-18T02:56:44.586Z,21.20
2022-11-18T03:00:54.366Z,22.23
2022-11-18T03:04:58.554Z,19.90
2022-11-18T03:09:03.080Z,21.42
2022-11-18T03:13:14.255Z,19.33
2022-11-18T03:17:30.379Z,18.00
2022-11-18T03:21:45.590Z,20.92
2022-11-18T03:25:59.261Z,20.42
2022-11-18T03:30:07.102Z,23.83
2022-11-18T03:34:21.322Z,20.90
2022-11-18T03:38:29.804Z,21.90
2022-11-18T03:47:05.681Z,22.00
2022-11-18T03:51:11.630Z,23.65
2022-11-18T03:55:19.038Z,28.88
2022-11-18T03:59:27.527Z,27.80
2022-11-18T04:03:29.538Z,28.45
2022-11-18T04:07:40.429Z,29.38
2022-11-18T04:12:02.669Z,29.88
2022-11-18T04:16:07.693Z,29.58
2022-11-18T04:20:17.165Z,26.27
2022-11-18T04:24:18.836Z,25.23
2022-11-18T04:28:20.945Z,24.98
2022-11-18T04:32:22.571Z,24.45
2022-11-18T04:36:24.507Z,24.13
2022-11-18T04:40:26.200Z,25.63
2022-11-18T04:44:30.354Z,24.10
2022-11-18T04:48:32.089Z,23.05
2022-11-18T04:52:34.133Z,23.70
2022-11-18T04:56:35.851Z,25.15
2022-11-18T05:00:37.709Z,21.60
2022-11-18T05:04:39.543Z,20.35
2022-11-18T05:08:41.479Z,19.92
2022-11-18T05:12:48.923Z,19.55
2022-11-18T05:16:50.980Z,20.17
2022-11-18T05:20:52.667Z,18.00
2022-11-18T05:24:54.613Z,16.83
2022-11-18T05:28:56.367Z,17.08
2022-11-18T05:32:58.295Z,16.92
2022-11-18T05:36:59.995Z,16.02
2022-11-18T05:41:03.105Z,14.35
2022-11-18T05:45:05.374Z,15.35
2022-11-18T05:49:07.748Z,17.40
2022-11-18T05:53:09.544Z,19.95
2022-11-18T05:57:11.411Z,14.57
2022-11-18T06:01:16.633Z,13.93
2022-11-18T06:05:20.249Z,13.38
2022-11-18T06:09:25.011Z,13.43
2022-11-18T06:13:31.150Z,15.05
2022-11-18T06:17:50.851Z,13.25
2022-11-18T06:21:53.589Z,12.35
2022-11-18T06:25:55.392Z,12.30
2022-11-18T06:29:57.319Z,15.43
2022-11-18T06:33:58.878Z,12.82
2022-11-18T06:38:00.785Z,15.70
2022-11-18T06:42:02.468Z,24.63
2022-11-18T06:46:24.483Z,14.32
2022-11-18T06:50:26.486Z,17.40
2022-11-18T06:54:28.576Z,15.98
2022-11-18T06:58:30.239Z,14.77
2022-11-18T07:02:32.498Z,17.08
2022-11-18T07:06:36.040Z,15.25
2022-11-18T07:10:37.983Z,17.15
2022-11-18T07:14:39.648Z,24.10
2022-11-18T07:18:43.214Z,18.73
2022-11-18T07:22:44.921Z,22.65
2022-11-18T07:26:47.014Z,19.13
2022-11-18T07:30:48.861Z,19.83
2022-11-18T07:34:50.770Z,22.13
2022-11-18T07:38:53.375Z,18.80
2022-11-18T07:42:55.360Z,20.23
2022-11-18T07:46:57.871Z,17.63
2022-11-18T07:51:00.936Z,15.93
2022-11-18T07:55:02.671Z,18.08
2022-11-18T07:59:05.327Z,17.60
2022-11-18T08:03:06.984Z,15.63
2022-11-18T08:07:10.024Z,16.77
2022-11-18T08:11:22.369Z,20.38
2022-11-18T08:15:25.484Z,19.27
2022-11-18T08:19:27.197Z,19.17
2022-11-18T08:23:33.079Z,14.95
2022-11-18T08:27:35.852Z,17.27
2022-11-18T08:31:37.933Z,16.80
2022-11-18T08:35:39.687Z,14.73
2022-11-18T08:39:41.670Z,13.88
2022-11-18T08:43:43.860Z,18.05
2022-11-18T08:47:45.807Z,12.73
2022-11-18T08:51:47.480Z,13.95
2022-11-18T08:55:57.330Z,14.10
2022-11-18T08:59:59.190Z,11.23
2022-11-18T09:04:01.119Z,11.32
2022-11-18T09:08:03.270Z,9.45
2022-11-18T09:12:05.466Z,8.20
2022-11-18T09:16:08.684Z,10.10
2022-11-18T09:20:10.698Z,10.38
2022-11-18T09:24:12.655Z,10.52
2022-11-18T09:28:14.243Z,10.63
2022-11-18T09:32:16.365Z,10.13
2022-11-18T09:36:21.252Z,10.98
2022-11-18T09:40:23.221Z,17.85
2022-11-18T09:44:33.726Z,11.50
2022-11-18T09:48:55.317Z,13.93
2022-11-18T09:53:18.925Z,15.32
2022-11-18T09:57:24.381Z,12.95
2022-11-18T10:01:27.912Z,11.88
2022-11-18T10:05:48.500Z,9.77
2022-11-18T10:09:54.432Z,18.80
2022-11-18T10:14:25.858Z,15.18
2022-11-18T10:18:59.286Z,12.20
2022-11-18T10:23:16.776Z,10.73
2022-11-18T10:27:19.204Z,9.07
2022-11-18T10:31:21.146Z,10.13
2022-11-18T10:35:29.687Z,10.95
2022-11-18T10:39:31.913Z,16.67
2022-11-18T10:43:54.401Z,13.88
2022-11-18T10:48:07.244Z,15.40
2022-11-18T10:52:14.189Z,8.10
2022-11-18T10:56:16.660Z,11.20
2022-11-18T11:00:42.287Z,9.70
2022-11-18T11:04:48.873Z,10.55
2022-11-18T11:08:57.389Z,9.02
2022-11-18T11:13:04.613Z,6.30
2022-11-18T11:17:12.184Z,7.50
2022-11-18T11:21:22.937Z,7.38
2022-11-18T11:30:23.456Z,8.95
2022-11-18T11:34:58.516Z,8.60
2022-11-18T11:39:33.487Z,9.20
2022-11-18T11:43:45.533Z,7.38
2022-11-18T11:48:21.914Z,6.75
2022-11-18T11:52:54.920Z,8.25
2022-11-18T11:57:22.642Z,7.75
2022-11-18T12:01:57.541Z,7.63
2022-11-18T12:05:59.550Z,11.68
2022-11-18T12:10:32.325Z,10.90
2022-11-18T12:14:50.797Z,7.68
2022-11-18T12:19:15.500Z,7.82
2022-11-18T12:23:27.704Z,8.77
2022-11-18T12:27:30.383Z,13.77
2022-11-18T12:31:34.536Z,18.15
2022-11-18T12:35:36.796Z,40.00
2022-11-18T12:39:41.595Z,9.70
2022-11-18T12:43:49.485Z,13.00
2022-11-18T12:51:54.715Z,14.50
2022-11-18T12:55:57.943Z,8.57
2022-11-18T13:00:24.271Z,7.40
2022-11-18T13:04:26.313Z,9.50
2022-11-18T13:08:29.104Z,7.93
2022-11-18T13:12:32.405Z,9.05
2022-11-18T13:16:52.695Z,10.23
2022-11-18T13:21:19.723Z,35.25
2022-11-18T13:25:26.346Z,35.95
2022-11-18T13:29:53.916Z,23.45
2022-11-18T13:34:01.151Z,24.60
2022-11-18T13:38:03.750Z,8.50
2022-11-18T13:42:29.649Z,12.30
2022-11-18T13:46:31.610Z,36.05
2022-11-18T13:50:52.564Z,23.45
2022-11-18T13:54:56.136Z,23.45
2022-11-18T13:59:18.099Z,12.75
2022-11-18T14:03:36.117Z,9.85
2022-11-18T14:07:38.677Z,9.18
2022-11-18T14:11:59.048Z,10.77
2022-11-18T14:16:23.688Z,12.50
2022-11-18T14:20:28.137Z,13.38
2022-11-18T14:24:29.854Z,12.95
2022-11-18T14:28:37.236Z,12.32
2022-11-18T14:32:39.158Z,12.93
2022-11-18T14:36:41.271Z,13.25
2022-11-18T14:40:42.913Z,23.92
2022-11-18T14:44:44.822Z,22.33
2022-11-18T14:48:46.820Z,44.67
2022-11-18T14:52:48.713Z,17.20
2022-11-18T14:56:51.238Z,20.92
2022-11-18T15:00:53.744Z,17.65
2022-11-18T15:04:56.158Z,18.02
2022-11-18T15:08:58.059Z,19.08
2022-11-18T15:13:00.603Z,17.85
2022-11-18T15:17:03.415Z,15.65
2022-11-18T15:21:05.174Z,13.95
2022-11-18T15:25:08.545Z,14.48
2022-11-18T15:29:21.826Z,16.75
2022-11-18T15:33:23.866Z,15.50
2022-11-18T15:37:25.653Z,13.98
2022-11-18T15:41:29.612Z,11.93
2022-11-18T15:45:31.233Z,10.23
2022-11-18T15:49:33.309Z,12.70
2022-11-18T15:53:35.101Z,11.38
2022-11-18T15:57:37.020Z,12.18
2022-11-18T16:01:41.298Z,30.95
2022-11-18T16:05:43.260Z,14.43
2022-11-18T16:10:03.490Z,15.65
2022-11-18T16:14:07.739Z,11.88
2022-11-18T16:18:10.718Z,13.77
2022-11-18T16:22:12.638Z,15.90
2022-11-18T16:26:17.336Z,13.95
2022-11-18T16:30:38.520Z,14.90
2022-11-18T16:34:40.678Z,13.05
2022-11-18T16:38:43.163Z,15.48
2022-11-18T16:42:48.552Z,17.27
2022-11-18T16:46:53.095Z,18.65
2022-11-18T16:51:21.791Z,19.30
2022-11-18T16:55:23.812Z,17.10
2022-11-18T16:59:28.314Z,19.00
2022-11-18T17:03:30.440Z,33.38
2022-11-18T17:07:38.065Z,20.00
2022-11-18T17:11:40.839Z,20.65
2022-11-18T17:15:42.682Z,23.00
2022-11-18T17:19:44.590Z,18.40
2022-11-18T17:23:47.588Z,34.60
2022-11-18T17:27:49.828Z,17.63
2022-11-18T17:31:51.598Z,22.90
2022-11-18T17:36:01.453Z,17.10
2022-11-18T17:40:03.526Z,31.85
2022-11-18T17:44:07.164Z,28.00
2022-11-18T17:48:08.902Z,16.77
2022-11-18T17:52:10.978Z,17.23
2022-11-18T17:56:12.765Z,15.57
2022-11-18T18:00:15.099Z,26.77
2022-11-18T18:04:21.362Z,23.80
2022-11-18T18:08:23.676Z,22.20
2022-11-18T18:12:45.001Z,26.50
2022-11-18T18:16:49.862Z,26.00
2022-11-18T18:20:51.505Z,24.25
2022-11-18T18:24:53.580Z,21.17
2022-11-18T18:28:55.580Z,28.60
2022-11-18T18:32:57.627Z,24.83
2022-11-18T18:36:59.320Z,19.65
2022-11-18T18:41:21.871Z,34.20
2022-11-18T18:45:42.148Z,27.42
2022-11-18T18:49:44.240Z,26.15
2022-11-18T18:53:46.844Z,21.58
2022-11-18T18:57:48.979Z,23.92
2022-11-18T19:01:50.713Z,30.92
2022-11-18T19:10:14.763Z,21.27
2022-11-18T19:14:19.075Z,22.38
2022-11-18T19:18:23.503Z,22.25
2022-11-18T19:22:26.313Z,14.43
2022-11-18T19:26:28.395Z,20.60
2022-11-18T19:30:30.682Z,19.95
2022-11-18T19:34:32.311Z,18.55
2022-11-18T19:38:35.727Z,13.73
2022-11-18T19:42:37.937Z,14.07
2022-11-18T19:46:40.060Z,14.05
2022-11-18T19:50:41.766Z,13.60
2022-11-18T19:54:43.978Z,13.13
2022-11-18T19:58:47.147Z,13.65
2022-11-18T20:02:49.108Z,16.17
2022-11-18T20:06:51.102Z,16.58
2022-11-18T20:10:53.559Z,18.05
2022-11-18T20:14:55.237Z,22.25
2022-11-18T20:18:59.486Z,21.83
2022-11-18T20:23:01.635Z,22.40
2022-11-18T20:27:04.410Z,20.58
2022-11-18T20:31:08.243Z,19.65
2022-11-18T20:35:10.295Z,21.30
2022-11-18T20:39:15.635Z,19.13
2022-11-18T20:43:17.789Z,26.60
2022-11-18T20:47:19.462Z,20.50
2022-11-18T20:51:26.971Z,20.83
2022-11-18T20:55:28.631Z,21.35
2022-11-18T20:59:30.496Z,20.95
2022-11-18T21:03:32.447Z,19.00
2022-11-18T21:07:34.823Z,18.48
2022-11-18T21:11:36.739Z,18.75
2022-11-18T21:15:38.737Z,19.88
2022-11-18T21:19:44.580Z,20.90
2022-11-18T21:23:49.307Z,19.85
2022-11-18T21:27:51.183Z,20.20
2022-11-18T21:31:53.669Z,16.73
2022-11-18T21:35:58.507Z,16.73
2022-11-18T21:40:00.511Z,19.42
2022-11-18T21:44:05.976Z,23.45
2022-11-18T21:48:08.624Z,35.10
2022-11-18T21:52:10.419Z,34.20
2022-11-18T21:56:14.939Z,35.88
2022-11-18T22:00:17.329Z,30.92
2022-11-18T22:04:37.942Z,28.58
2022-11-18T22:08:41.011Z,34.88
2022-11-18T22:12:43.037Z,26.10
2022-11-18T22:16:44.688Z,17.63
2022-11-18T22:20:46.837Z,23.38
2022-11-18T22:24:48.525Z,20.40
2022-11-18T22:28:55.630Z,19.90
2022-11-18T22:32:57.456Z,29.92
2022-11-18T22:36:59.522Z,31.25
2022-11-18T22:41:30.681Z,24.73
2022-11-18T22:45:33.668Z,19.88
2022-11-18T22:49:35.392Z,19.73
2022-11-18T22:53:37.513Z,24.08
2022-11-18T22:57:39.399Z,20.15
2022-11-18T23:01:41.680Z,20.17
2022-11-18T23:05:46.383Z,19.90
2022-11-18T23:09:48.496Z,22.67
2022-11-18T23:13:56.381Z,20.65
2022-11-18T23:17:58.456Z,19.75
2022-11-18T23:22:00.128Z,15.35
2022-11-18T23:26:21.247Z,20.67
2022-11-18T23:30:23.027Z,15.82
2022-11-18T23:34:25.818Z,16.92
2022-11-18T23:38:28.905Z,19.30
2022-11-18T23:42:30.874Z,21.17
2022-11-18T23:46:33.350Z,18.30
2022-11-18T23:50:39.325Z,18.92
2022-11-18T23:54:41.332Z,19.52
2022-11-18T23:58:46.593Z,19.42
